sensor_id;sensor_type;location;lat;lon;timestamp;P1;durP1;ratioP1;P2;durP2;ratioP2
29548;SDS011;16487;53.094;8.800;2023-06-26T00:00:58;6.87;;;6.27;;
29548;SDS011;16487;53.094;8.800;2023-06-26T00:03:45;7.83;;;6.63;;
29548;SDS011;16487;53.094;8.800;2023-06-26T00:06:33;6.77;;;6.10;;
29548;SDS011;16487;53.094;8.800;2023-06-26T00:09:22;6.20;;;5.70;;
29548;SDS011;16487;53.094;8.800;2023-06-26T00:12:10;7.60;;;6.90;;
29548;SDS011;16487;53.094;8.800;2023-06-26T00:14:58;8.30;;;6.27;;
29548;SDS011;16487;53.094;8.800;2023-06-26T00:17:46;8.70;;;6.20;;
29548;SDS011;16487;53.094;8.800;2023-06-26T00:20:33;7.07;;;6.40;;
29548;SDS011;16487;53.094;8.800;2023-06-26T00:23:21;6.73;;;6.13;;
29548;SDS011;16487;53.094;8.800;2023-06-26T00:26:10;6.57;;;6.00;;
29548;SDS011;16487;53.094;8.800;2023-06-26T00:28:58;6.27;;;5.67;;
29548;SDS011;16487;53.094;8.800;2023-06-26T00:31:46;6.70;;;6.10;;
29548;SDS011;16487;53.094;8.800;2023-06-26T00:34:33;6.20;;;5.73;;
29548;SDS011;16487;53.094;8.800;2023-06-26T00:37:21;6.80;;;6.10;;
29548;SDS011;16487;53.094;8.800;2023-06-26T00:40:09;7.53;;;6.83;;
29548;SDS011;16487;53.094;8.800;2023-06-26T00:42:59;7.10;;;6.50;;
29548;SDS011;16487;53.094;8.800;2023-06-26T00:45:47;7.50;;;6.13;;
29548;SDS011;16487;53.094;8.800;2023-06-26T00:48:35;7.40;;;6.80;;
29548;SDS011;16487;53.094;8.800;2023-06-26T00:51:23;7.70;;;7.00;;
29548;SDS011;16487;53.094;8.800;2023-06-26T00:54:11;7.30;;;6.60;;
29548;SDS011;16487;53.094;8.800;2023-06-26T00:56:59;7.83;;;7.03;;
29548;SDS011;16487;53.094;8.800;2023-06-26T00:59:49;8.20;;;7.50;;
29548;SDS011;16487;53.094;8.800;2023-06-26T01:02:36;6.70;;;6.10;;
29548;SDS011;16487;53.094;8.800;2023-06-26T01:05:24;7.30;;;6.60;;
29548;SDS011;16487;53.094;8.800;2023-06-26T01:08:12;7.27;;;6.67;;
29548;SDS011;16487;53.094;8.800;2023-06-26T01:11:01;7.33;;;6.73;;
29548;SDS011;16487;53.094;8.800;2023-06-26T01:13:50;7.17;;;6.50;;
29548;SDS011;16487;53.094;8.800;2023-06-26T01:16:40;7.03;;;6.43;;
29548;SDS011;16487;53.094;8.800;2023-06-26T01:19:29;8.17;;;7.37;;
29548;SDS011;16487;53.094;8.800;2023-06-26T01:22:23;7.53;;;6.80;;
29548;SDS011;16487;53.094;8.800;2023-06-26T01:25:21;7.63;;;6.93;;
29548;SDS011;16487;53.094;8.800;2023-06-26T01:28:18;8.50;;;7.40;;
29548;SDS011;16487;53.094;8.800;2023-06-26T01:31:07;7.90;;;7.20;;
29548;SDS011;16487;53.094;8.800;2023-06-26T01:33:56;8.23;;;7.43;;
29548;SDS011;16487;53.094;8.800;2023-06-26T01:36:45;7.40;;;6.77;;
29548;SDS011;16487;53.094;8.800;2023-06-26T01:39:33;7.47;;;6.77;;
29548;SDS011;16487;53.094;8.800;2023-06-26T01:42:20;7.83;;;6.67;;
29548;SDS011;16487;53.094;8.800;2023-06-26T01:45:12;7.33;;;6.73;;
29548;SDS011;16487;53.094;8.800;2023-06-26T01:48:06;8.33;;;7.53;;
29548;SDS011;16487;53.094;8.800;2023-06-26T01:51:01;7.10;;;6.47;;
29548;SDS011;16487;53.094;8.800;2023-06-26T01:53:50;7.30;;;6.57;;
29548;SDS011;16487;53.094;8.800;2023-06-26T01:56:42;8.00;;;7.37;;
29548;SDS011;16487;53.094;8.800;2023-06-26T01:59:34;7.47;;;6.77;;
29548;SDS011;16487;53.094;8.800;2023-06-26T02:02:24;8.07;;;7.27;;
29548;SDS011;16487;53.094;8.800;2023-06-26T02:05:12;8.00;;;7.20;;
29548;SDS011;16487;53.094;8.800;2023-06-26T02:08:01;8.30;;;7.60;;
29548;SDS011;16487;53.094;8.800;2023-06-26T02:10:50;7.87;;;7.07;;
29548;SDS011;16487;53.094;8.800;2023-06-26T02:13:37;7.33;;;6.30;;
29548;SDS011;16487;53.094;8.800;2023-06-26T02:16:25;7.70;;;7.00;;
29548;SDS011;16487;53.094;8.800;2023-06-26T02:19:14;8.27;;;7.57;;
29548;SDS011;16487;53.094;8.800;2023-06-26T02:22:02;7.80;;;7.13;;
29548;SDS011;16487;53.094;8.800;2023-06-26T02:24:49;9.60;;;7.60;;
29548;SDS011;16487;53.094;8.800;2023-06-26T02:27:37;7.20;;;6.60;;
29548;SDS011;16487;53.094;8.800;2023-06-26T02:30:25;7.93;;;7.13;;
29548;SDS011;16487;53.094;8.800;2023-06-26T02:33:12;7.60;;;7.00;;
29548;SDS011;16487;53.094;8.800;2023-06-26T02:36:02;8.37;;;7.67;;
29548;SDS011;16487;53.094;8.800;2023-06-26T02:38:49;8.87;;;7.97;;
29548;SDS011;16487;53.094;8.800;2023-06-26T02:41:38;7.83;;;7.30;;
29548;SDS011;16487;53.094;8.800;2023-06-26T02:44:26;8.27;;;7.47;;
29548;SDS011;16487;53.094;8.800;2023-06-26T02:47:14;7.13;;;6.43;;
29548;SDS011;16487;53.094;8.800;2023-06-26T02:50:04;8.70;;;7.90;;
29548;SDS011;16487;53.094;8.800;2023-06-26T02:53:06;8.40;;;7.60;;
29548;SDS011;16487;53.094;8.800;2023-06-26T02:55:54;8.10;;;7.30;;
29548;SDS011;16487;53.094;8.800;2023-06-26T02:58:42;7.30;;;6.60;;
29548;SDS011;16487;53.094;8.800;2023-06-26T03:01:30;8.53;;;7.10;;
29548;SDS011;16487;53.094;8.800;2023-06-26T03:04:17;7.67;;;6.97;;
29548;SDS011;16487;53.094;8.800;2023-06-26T03:07:06;8.40;;;7.63;;
29548;SDS011;16487;53.094;8.800;2023-06-26T03:09:55;8.60;;;7.90;;
29548;SDS011;16487;53.094;8.800;2023-06-26T03:12:42;8.30;;;7.50;;
29548;SDS011;16487;53.094;8.800;2023-06-26T03:15:31;8.53;;;7.73;;
29548;SDS011;16487;53.094;8.800;2023-06-26T03:18:18;7.90;;;7.10;;
29548;SDS011;16487;53.094;8.800;2023-06-26T03:21:08;8.37;;;7.67;;
29548;SDS011;16487;53.094;8.800;2023-06-26T03:23:59;8.00;;;7.20;;
29548;SDS011;16487;53.094;8.800;2023-06-26T03:26:48;7.60;;;6.80;;
29548;SDS011;16487;53.094;8.800;2023-06-26T03:29:36;8.73;;;7.93;;
29548;SDS011;16487;53.094;8.800;2023-06-26T03:32:24;7.47;;;6.77;;
29548;SDS011;16487;53.094;8.800;2023-06-26T03:35:12;8.43;;;7.63;;
29548;SDS011;16487;53.094;8.800;2023-06-26T03:38:00;7.70;;;6.90;;
29548;SDS011;16487;53.094;8.800;2023-06-26T03:40:49;9.20;;;8.40;;
29548;SDS011;16487;53.094;8.800;2023-06-26T03:43:38;8.30;;;7.60;;
29548;SDS011;16487;53.094;8.800;2023-06-26T03:46:39;8.23;;;7.43;;
29548;SDS011;16487;53.094;8.800;2023-06-26T03:49:27;7.40;;;6.67;;
29548;SDS011;16487;53.094;8.800;2023-06-26T03:52:15;7.90;;;7.20;;
29548;SDS011;16487;53.094;8.800;2023-06-26T03:55:03;7.97;;;7.17;;
29548;SDS011;16487;53.094;8.800;2023-06-26T03:57:52;6.90;;;6.30;;
29548;SDS011;16487;53.094;8.800;2023-06-26T04:00:41;7.37;;;6.67;;
29548;SDS011;16487;53.094;8.800;2023-06-26T04:03:29;6.80;;;6.03;;
29548;SDS011;16487;53.094;8.800;2023-06-26T04:06:16;7.60;;;6.90;;
29548;SDS011;16487;53.094;8.800;2023-06-26T04:09:04;8.57;;;7.73;;
29548;SDS011;16487;53.094;8.800;2023-06-26T04:11:52;7.80;;;6.47;;
29548;SDS011;16487;53.094;8.800;2023-06-26T04:14:40;7.90;;;7.20;;
29548;SDS011;16487;53.094;8.800;2023-06-26T04:17:29;7.53;;;6.07;;
29548;SDS011;16487;53.094;8.800;2023-06-26T04:20:17;7.40;;;6.80;;
29548;SDS011;16487;53.094;8.800;2023-06-26T04:23:05;7.90;;;7.20;;
29548;SDS011;16487;53.094;8.800;2023-06-26T04:25:53;9.80;;;7.70;;
29548;SDS011;16487;53.094;8.800;2023-06-26T04:28:53;7.93;;;7.17;;
29548;SDS011;16487;53.094;8.800;2023-06-26T04:31:41;7.43;;;6.70;;
29548;SDS011;16487;53.094;8.800;2023-06-26T04:34:30;9.27;;;7.50;;
29548;SDS011;16487;53.094;8.800;2023-06-26T04:37:17;7.93;;;7.23;;
29548;SDS011;16487;53.094;8.800;2023-06-26T04:40:06;8.23;;;7.43;;
29548;SDS011;16487;53.094;8.800;2023-06-26T04:42:54;7.70;;;6.90;;
29548;SDS011;16487;53.094;8.800;2023-06-26T04:45:42;7.13;;;6.07;;
29548;SDS011;16487;53.094;8.800;2023-06-26T04:48:30;6.83;;;6.20;;
29548;SDS011;16487;53.094;8.800;2023-06-26T04:51:19;8.10;;;6.63;;
29548;SDS011;16487;53.094;8.800;2023-06-26T04:54:07;6.83;;;5.97;;
29548;SDS011;16487;53.094;8.800;2023-06-26T04:56:54;6.90;;;6.20;;
29548;SDS011;16487;53.094;8.800;2023-06-26T04:59:42;7.07;;;6.43;;
29548;SDS011;16487;53.094;8.800;2023-06-26T05:02:30;7.23;;;6.57;;
29548;SDS011;16487;53.094;8.800;2023-06-26T05:05:18;6.83;;;6.17;;
29548;SDS011;16487;53.094;8.800;2023-06-26T05:08:17;6.50;;;5.90;;
29548;SDS011;16487;53.094;8.800;2023-06-26T05:11:07;7.37;;;6.77;;
29548;SDS011;16487;53.094;8.800;2023-06-26T05:13:55;5.83;;;5.33;;
29548;SDS011;16487;53.094;8.800;2023-06-26T05:16:43;7.97;;;5.67;;
29548;SDS011;16487;53.094;8.800;2023-06-26T05:19:30;6.23;;;5.63;;
29548;SDS011;16487;53.094;8.800;2023-06-26T05:22:18;5.73;;;5.23;;
29548;SDS011;16487;53.094;8.800;2023-06-26T05:25:09;6.67;;;5.97;;
29548;SDS011;16487;53.094;8.800;2023-06-26T05:27:58;6.37;;;5.80;;
29548;SDS011;16487;53.094;8.800;2023-06-26T05:30:47;5.67;;;5.17;;
29548;SDS011;16487;53.094;8.800;2023-06-26T05:33:35;6.50;;;5.63;;
29548;SDS011;16487;53.094;8.800;2023-06-26T05:36:24;6.63;;;6.03;;
29548;SDS011;16487;53.094;8.800;2023-06-26T05:39:12;6.00;;;5.43;;
29548;SDS011;16487;53.094;8.800;2023-06-26T05:42:02;6.17;;;5.67;;
29548;SDS011;16487;53.094;8.800;2023-06-26T05:44:50;6.40;;;5.90;;
29548;SDS011;16487;53.094;8.800;2023-06-26T05:47:38;6.00;;;5.40;;
29548;SDS011;16487;53.094;8.800;2023-06-26T05:50:27;6.60;;;5.90;;
29548;SDS011;16487;53.094;8.800;2023-06-26T05:53:15;5.43;;;4.83;;
29548;SDS011;16487;53.094;8.800;2023-06-26T05:56:04;7.00;;;6.30;;
29548;SDS011;16487;53.094;8.800;2023-06-26T05:58:53;9.30;;;6.00;;
29548;SDS011;16487;53.094;8.800;2023-06-26T06:01:41;7.00;;;6.30;;
29548;SDS011;16487;53.094;8.800;2023-06-26T06:04:29;6.03;;;5.47;;
29548;SDS011;16487;53.094;8.800;2023-06-26T06:07:17;5.70;;;5.27;;
29548;SDS011;16487;53.094;8.800;2023-06-26T06:10:05;6.87;;;6.20;;
29548;SDS011;16487;53.094;8.800;2023-06-26T06:12:53;7.07;;;6.40;;
29548;SDS011;16487;53.094;8.800;2023-06-26T06:15:42;5.53;;;5.03;;
29548;SDS011;16487;53.094;8.800;2023-06-26T06:18:30;5.53;;;5.10;;
29548;SDS011;16487;53.094;8.800;2023-06-26T06:21:18;5.93;;;5.33;;
29548;SDS011;16487;53.094;8.800;2023-06-26T06:24:05;5.70;;;5.20;;
29548;SDS011;16487;53.094;8.800;2023-06-26T06:26:53;7.37;;;6.33;;
29548;SDS011;16487;53.094;8.800;2023-06-26T06:29:41;7.03;;;6.00;;
29548;SDS011;16487;53.094;8.800;2023-06-26T06:32:30;6.33;;;5.83;;
29548;SDS011;16487;53.094;8.800;2023-06-26T06:35:18;6.50;;;5.90;;
29548;SDS011;16487;53.094;8.800;2023-06-26T06:38:06;6.47;;;5.87;;
29548;SDS011;16487;53.094;8.800;2023-06-26T06:40:53;6.83;;;6.00;;
29548;SDS011;16487;53.094;8.800;2023-06-26T06:43:41;6.90;;;6.20;;
29548;SDS011;16487;53.094;8.800;2023-06-26T06:46:29;6.40;;;5.80;;
29548;SDS011;16487;53.094;8.800;2023-06-26T06:49:18;6.63;;;6.07;;
29548;SDS011;16487;53.094;8.800;2023-06-26T06:52:06;6.47;;;5.87;;
29548;SDS011;16487;53.094;8.800;2023-06-26T06:54:54;7.87;;;7.07;;
29548;SDS011;16487;53.094;8.800;2023-06-26T06:57:43;5.90;;;5.40;;
29548;SDS011;16487;53.094;8.800;2023-06-26T07:00:31;6.53;;;5.97;;
29548;SDS011;16487;53.094;8.800;2023-06-26T07:03:18;6.73;;;6.13;;
29548;SDS011;16487;53.094;8.800;2023-06-26T07:06:07;6.87;;;6.33;;
29548;SDS011;16487;53.094;8.800;2023-06-26T07:08:55;8.50;;;7.50;;
29548;SDS011;16487;53.094;8.800;2023-06-26T07:11:43;7.53;;;6.93;;
29548;SDS011;16487;53.094;8.800;2023-06-26T07:14:30;10.57;;;8.50;;
29548;SDS011;16487;53.094;8.800;2023-06-26T07:17:18;9.50;;;8.70;;
29548;SDS011;16487;53.094;8.800;2023-06-26T07:20:06;9.47;;;8.67;;
29548;SDS011;16487;53.094;8.800;2023-06-26T07:22:55;8.23;;;7.43;;
29548;SDS011;16487;53.094;8.800;2023-06-26T07:25:43;8.57;;;7.77;;
29548;SDS011;16487;53.094;8.800;2023-06-26T07:28:30;6.87;;;6.27;;
29548;SDS011;16487;53.094;8.800;2023-06-26T07:31:18;8.07;;;7.23;;
29548;SDS011;16487;53.094;8.800;2023-06-26T07:34:06;7.30;;;6.70;;
29548;SDS011;16487;53.094;8.800;2023-06-26T07:36:53;8.20;;;7.40;;
29548;SDS011;16487;53.094;8.800;2023-06-26T07:39:42;8.53;;;7.87;;
29548;SDS011;16487;53.094;8.800;2023-06-26T07:42:30;6.63;;;6.07;;
29548;SDS011;16487;53.094;8.800;2023-06-26T07:45:17;6.20;;;5.70;;
29548;SDS011;16487;53.094;8.800;2023-06-26T07:48:05;7.10;;;5.20;;
29548;SDS011;16487;53.094;8.800;2023-06-26T07:50:53;6.17;;;5.57;;
29548;SDS011;16487;53.094;8.800;2023-06-26T07:53:42;6.80;;;6.20;;
29548;SDS011;16487;53.094;8.800;2023-06-26T07:56:34;5.57;;;5.07;;
29548;SDS011;16487;53.094;8.800;2023-06-26T07:59:38;6.60;;;5.93;;
29548;SDS011;16487;53.094;8.800;2023-06-26T08:02:26;7.30;;;5.60;;
29548;SDS011;16487;53.094;8.800;2023-06-26T08:05:14;7.30;;;6.60;;
29548;SDS011;16487;53.094;8.800;2023-06-26T08:08:02;7.70;;;7.07;;
29548;SDS011;16487;53.094;8.800;2023-06-26T08:10:50;7.90;;;7.10;;
29548;SDS011;16487;53.094;8.800;2023-06-26T08:13:42;7.80;;;6.97;;
29548;SDS011;16487;53.094;8.800;2023-06-26T08:16:29;6.50;;;6.00;;
29548;SDS011;16487;53.094;8.800;2023-06-26T08:19:17;6.00;;;5.50;;
29548;SDS011;16487;53.094;8.800;2023-06-26T08:22:06;4.17;;;3.77;;
29548;SDS011;16487;53.094;8.800;2023-06-26T08:24:55;5.80;;;5.20;;
29548;SDS011;16487;53.094;8.800;2023-06-26T08:27:43;5.03;;;3.93;;
29548;SDS011;16487;53.094;8.800;2023-06-26T08:30:32;5.50;;;4.13;;
29548;SDS011;16487;53.094;8.800;2023-06-26T08:33:20;6.13;;;5.20;;
29548;SDS011;16487;53.094;8.800;2023-06-26T08:36:08;4.43;;;4.03;;
29548;SDS011;16487;53.094;8.800;2023-06-26T08:38:56;4.93;;;4.50;;
29548;SDS011;16487;53.094;8.800;2023-06-26T08:41:43;9.63;;;4.67;;
29548;SDS011;16487;53.094;8.800;2023-06-26T08:44:31;7.57;;;4.23;;
29548;SDS011;16487;53.094;8.800;2023-06-26T08:47:21;5.37;;;4.87;;
29548;SDS011;16487;53.094;8.800;2023-06-26T08:50:10;6.13;;;5.23;;
29548;SDS011;16487;53.094;8.800;2023-06-26T08:53:01;6.77;;;5.50;;
29548;SDS011;16487;53.094;8.800;2023-06-26T08:55:52;6.10;;;5.20;;
29548;SDS011;16487;53.094;8.800;2023-06-26T08:58:41;5.70;;;4.93;;
29548;SDS011;16487;53.094;8.800;2023-06-26T09:01:30;7.10;;;6.40;;
29548;SDS011;16487;53.094;8.800;2023-06-26T09:04:22;7.57;;;6.97;;
29548;SDS011;16487;53.094;8.800;2023-06-26T09:07:09;7.73;;;6.40;;
29548;SDS011;16487;53.094;8.800;2023-06-26T09:09:57;8.23;;;7.40;;
29548;SDS011;16487;53.094;8.800;2023-06-26T09:12:45;9.20;;;8.30;;
29548;SDS011;16487;53.094;8.800;2023-06-26T09:15:37;11.67;;;8.87;;
29548;SDS011;16487;53.094;8.800;2023-06-26T09:18:25;9.27;;;8.37;;
29548;SDS011;16487;53.094;8.800;2023-06-26T09:21:14;9.17;;;8.27;;
29548;SDS011;16487;53.094;8.800;2023-06-26T09:24:02;7.70;;;6.90;;
29548;SDS011;16487;53.094;8.800;2023-06-26T09:26:50;6.20;;;5.60;;
29548;SDS011;16487;53.094;8.800;2023-06-26T09:29:38;5.20;;;4.70;;
29548;SDS011;16487;53.094;8.800;2023-06-26T09:32:26;6.20;;;4.63;;
29548;SDS011;16487;53.094;8.800;2023-06-26T09:35:14;5.13;;;4.70;;
29548;SDS011;16487;53.094;8.800;2023-06-26T09:38:03;5.23;;;4.30;;
29548;SDS011;16487;53.094;8.800;2023-06-26T09:40:51;4.37;;;3.97;;
29548;SDS011;16487;53.094;8.800;2023-06-26T09:43:45;4.23;;;3.83;;
29548;SDS011;16487;53.094;8.800;2023-06-26T09:46:33;4.33;;;3.53;;
29548;SDS011;16487;53.094;8.800;2023-06-26T09:49:23;5.50;;;4.17;;
29548;SDS011;16487;53.094;8.800;2023-06-26T09:52:11;3.73;;;2.60;;
29548;SDS011;16487;53.094;8.800;2023-06-26T09:55:09;4.00;;;3.00;;
29548;SDS011;16487;53.094;8.800;2023-06-26T09:57:57;3.70;;;2.03;;
29548;SDS011;16487;53.094;8.800;2023-06-26T10:00:54;1.90;;;1.60;;
29548;SDS011;16487;53.094;8.800;2023-06-26T10:03:41;3.10;;;2.50;;
29548;SDS011;16487;53.094;8.800;2023-06-26T10:06:31;2.37;;;1.93;;
29548;SDS011;16487;53.094;8.800;2023-06-26T10:09:20;1.90;;;1.80;;
29548;SDS011;16487;53.094;8.800;2023-06-26T10:12:14;2.07;;;1.53;;
29548;SDS011;16487;53.094;8.800;2023-06-26T10:15:05;2.87;;;1.80;;
29548;SDS011;16487;53.094;8.800;2023-06-26T10:17:56;2.87;;;2.07;;
29548;SDS011;16487;53.094;8.800;2023-06-26T10:20:44;2.40;;;1.90;;
29548;SDS011;16487;53.094;8.800;2023-06-26T10:23:35;3.37;;;1.60;;
29548;SDS011;16487;53.094;8.800;2023-06-26T10:26:26;1.70;;;1.60;;
29548;SDS011;16487;53.094;8.800;2023-06-26T10:29:17;1.40;;;1.20;;
29548;SDS011;16487;53.094;8.800;2023-06-26T10:32:10;1.70;;;1.60;;
29548;SDS011;16487;53.094;8.800;2023-06-26T10:34:59;1.57;;;1.10;;
29548;SDS011;16487;53.094;8.800;2023-06-26T10:37:48;1.43;;;1.33;;
29548;SDS011;16487;53.094;8.800;2023-06-26T10:40:40;1.67;;;1.50;;
29548;SDS011;16487;53.094;8.800;2023-06-26T10:43:29;1.30;;;1.10;;
29548;SDS011;16487;53.094;8.800;2023-06-26T10:46:21;1.50;;;1.40;;
29548;SDS011;16487;53.094;8.800;2023-06-26T10:49:09;2.20;;;1.43;;
29548;SDS011;16487;53.094;8.800;2023-06-26T10:52:00;4.03;;;0.80;;
29548;SDS011;16487;53.094;8.800;2023-06-26T10:54:48;2.37;;;1.63;;
29548;SDS011;16487;53.094;8.800;2023-06-26T10:57:37;1.77;;;1.67;;
29548;SDS011;16487;53.094;8.800;2023-06-26T11:00:25;1.63;;;1.40;;
29548;SDS011;16487;53.094;8.800;2023-06-26T11:03:23;1.27;;;1.17;;
29548;SDS011;16487;53.094;8.800;2023-06-26T11:06:11;1.40;;;1.30;;
29548;SDS011;16487;53.094;8.800;2023-06-26T11:09:00;1.20;;;1.20;;
29548;SDS011;16487;53.094;8.800;2023-06-26T11:11:59;1.20;;;1.10;;
29548;SDS011;16487;53.094;8.800;2023-06-26T11:14:47;2.50;;;1.70;;
29548;SDS011;16487;53.094;8.800;2023-06-26T11:17:36;1.87;;;1.20;;
29548;SDS011;16487;53.094;8.800;2023-06-26T11:20:25;1.77;;;1.30;;
29548;SDS011;16487;53.094;8.800;2023-06-26T11:23:15;1.50;;;1.40;;
29548;SDS011;16487;53.094;8.800;2023-06-26T11:26:15;2.30;;;2.10;;
29548;SDS011;16487;53.094;8.800;2023-06-26T11:29:04;1.50;;;1.40;;
29548;SDS011;16487;53.094;8.800;2023-06-26T11:31:57;1.27;;;1.17;;
29548;SDS011;16487;53.094;8.800;2023-06-26T11:34:48;1.73;;;1.00;;
29548;SDS011;16487;53.094;8.800;2023-06-26T11:37:37;4.10;;;1.30;;
29548;SDS011;16487;53.094;8.800;2023-06-26T11:40:25;2.00;;;1.10;;
29548;SDS011;16487;53.094;8.800;2023-06-26T11:43:13;1.00;;;0.97;;
29548;SDS011;16487;53.094;8.800;2023-06-26T11:46:00;1.20;;;1.10;;
29548;SDS011;16487;53.094;8.800;2023-06-26T11:48:49;1.23;;;1.13;;
29548;SDS011;16487;53.094;8.800;2023-06-26T11:51:37;3.57;;;1.33;;
29548;SDS011;16487;53.094;8.800;2023-06-26T11:54:26;1.40;;;1.30;;
29548;SDS011;16487;53.094;8.800;2023-06-26T11:57:15;1.63;;;1.53;;
29548;SDS011;16487;53.094;8.800;2023-06-26T12:00:12;2.73;;;1.70;;
29548;SDS011;16487;53.094;8.800;2023-06-26T12:03:00;1.57;;;1.47;;
29548;SDS011;16487;53.094;8.800;2023-06-26T12:05:48;1.50;;;1.40;;
29548;SDS011;16487;53.094;8.800;2023-06-26T12:08:36;1.37;;;1.27;;
29548;SDS011;16487;53.094;8.800;2023-06-26T12:11:25;1.30;;;1.20;;
29548;SDS011;16487;53.094;8.800;2023-06-26T12:14:17;1.63;;;1.23;;
29548;SDS011;16487;53.094;8.800;2023-06-26T12:17:08;1.50;;;1.10;;
29548;SDS011;16487;53.094;8.800;2023-06-26T12:19:57;1.70;;;1.60;;
29548;SDS011;16487;53.094;8.800;2023-06-26T12:22:45;1.50;;;1.37;;
29548;SDS011;16487;53.094;8.800;2023-06-26T12:25:33;2.00;;;1.33;;
29548;SDS011;16487;53.094;8.800;2023-06-26T12:28:22;1.63;;;1.50;;
29548;SDS011;16487;53.094;8.800;2023-06-26T12:31:13;1.73;;;1.40;;
29548;SDS011;16487;53.094;8.800;2023-06-26T12:34:01;1.40;;;1.30;;
29548;SDS011;16487;53.094;8.800;2023-06-26T12:37:00;1.20;;;1.10;;
29548;SDS011;16487;53.094;8.800;2023-06-26T12:39:49;1.87;;;1.43;;
29548;SDS011;16487;53.094;8.800;2023-06-26T12:42:37;3.33;;;1.40;;
29548;SDS011;16487;53.094;8.800;2023-06-26T12:45:26;1.40;;;1.30;;
29548;SDS011;16487;53.094;8.800;2023-06-26T12:48:19;1.13;;;1.13;;
29548;SDS011;16487;53.094;8.800;2023-06-26T12:51:08;2.27;;;1.50;;
29548;SDS011;16487;53.094;8.800;2023-06-26T12:53:56;2.90;;;2.13;;
29548;SDS011;16487;53.094;8.800;2023-06-26T12:56:44;1.60;;;1.50;;
29548;SDS011;16487;53.094;8.800;2023-06-26T12:59:32;3.77;;;1.30;;
29548;SDS011;16487;53.094;8.800;2023-06-26T13:02:21;1.17;;;1.13;;
29548;SDS011;16487;53.094;8.800;2023-06-26T13:05:09;1.77;;;1.67;;
29548;SDS011;16487;53.094;8.800;2023-06-26T13:07:57;1.70;;;1.60;;
29548;SDS011;16487;53.094;8.800;2023-06-26T13:10:45;3.70;;;1.60;;
29548;SDS011;16487;53.094;8.800;2023-06-26T13:13:32;2.10;;;1.63;;
29548;SDS011;16487;53.094;8.800;2023-06-26T13:16:20;1.20;;;1.20;;
29548;SDS011;16487;53.094;8.800;2023-06-26T13:19:09;1.10;;;1.10;;
29548;SDS011;16487;53.094;8.800;2023-06-26T13:21:57;3.10;;;1.33;;
29548;SDS011;16487;53.094;8.800;2023-06-26T13:24:47;1.50;;;1.40;;
29548;SDS011;16487;53.094;8.800;2023-06-26T13:27:34;1.80;;;1.40;;
29548;SDS011;16487;53.094;8.800;2023-06-26T13:30:22;1.10;;;1.00;;
29548;SDS011;16487;53.094;8.800;2023-06-26T13:33:09;1.70;;;1.60;;
29548;SDS011;16487;53.094;8.800;2023-06-26T13:35:59;1.80;;;1.30;;
29548;SDS011;16487;53.094;8.800;2023-06-26T13:38:47;2.10;;;1.60;;
29548;SDS011;16487;53.094;8.800;2023-06-26T13:41:34;1.73;;;1.60;;
29548;SDS011;16487;53.094;8.800;2023-06-26T13:44:22;2.23;;;1.53;;
29548;SDS011;16487;53.094;8.800;2023-06-26T13:47:22;1.67;;;1.57;;
29548;SDS011;16487;53.094;8.800;2023-06-26T13:50:10;2.10;;;2.00;;
29548;SDS011;16487;53.094;8.800;2023-06-26T13:52:59;2.67;;;1.63;;
29548;SDS011;16487;53.094;8.800;2023-06-26T13:55:46;2.33;;;1.90;;
29548;SDS011;16487;53.094;8.800;2023-06-26T13:58:34;1.87;;;1.70;;
29548;SDS011;16487;53.094;8.800;2023-06-26T14:01:23;1.50;;;1.33;;
29548;SDS011;16487;53.094;8.800;2023-06-26T14:04:10;2.27;;;2.00;;
29548;SDS011;16487;53.094;8.800;2023-06-26T14:06:58;1.30;;;1.20;;
29548;SDS011;16487;53.094;8.800;2023-06-26T14:09:47;1.53;;;1.43;;
29548;SDS011;16487;53.094;8.800;2023-06-26T14:12:35;2.30;;;2.10;;
29548;SDS011;16487;53.094;8.800;2023-06-26T14:15:22;1.70;;;1.33;;
29548;SDS011;16487;53.094;8.800;2023-06-26T14:18:10;1.30;;;1.20;;
29548;SDS011;16487;53.094;8.800;2023-06-26T14:20:58;1.30;;;1.20;;
29548;SDS011;16487;53.094;8.800;2023-06-26T14:23:46;5.27;;;1.60;;
29548;SDS011;16487;53.094;8.800;2023-06-26T14:26:35;1.33;;;1.20;;
29548;SDS011;16487;53.094;8.800;2023-06-26T14:29:22;2.60;;;1.37;;
29548;SDS011;16487;53.094;8.800;2023-06-26T14:32:10;3.70;;;1.50;;
29548;SDS011;16487;53.094;8.800;2023-06-26T14:34:58;1.70;;;1.47;;
29548;SDS011;16487;53.094;8.800;2023-06-26T14:37:47;1.33;;;1.23;;
29548;SDS011;16487;53.094;8.800;2023-06-26T14:40:35;1.93;;;1.50;;
29548;SDS011;16487;53.094;8.800;2023-06-26T14:43:25;2.00;;;1.60;;
29548;SDS011;16487;53.094;8.800;2023-06-26T14:46:13;3.47;;;2.57;;
29548;SDS011;16487;53.094;8.800;2023-06-26T14:49:02;33.93;;;17.03;;
29548;SDS011;16487;53.094;8.800;2023-06-26T14:51:53;2.50;;;1.77;;
29548;SDS011;16487;53.094;8.800;2023-06-26T14:54:40;1.50;;;1.30;;
29548;SDS011;16487;53.094;8.800;2023-06-26T14:57:29;2.23;;;1.60;;
29548;SDS011;16487;53.094;8.800;2023-06-26T15:00:18;2.03;;;1.60;;
29548;SDS011;16487;53.094;8.800;2023-06-26T15:03:06;1.83;;;1.60;;
29548;SDS011;16487;53.094;8.800;2023-06-26T15:05:54;1.60;;;1.33;;
29548;SDS011;16487;53.094;8.800;2023-06-26T15:08:42;2.30;;;1.63;;
29548;SDS011;16487;53.094;8.800;2023-06-26T15:11:30;1.43;;;1.40;;
29548;SDS011;16487;53.094;8.800;2023-06-26T15:14:18;1.20;;;1.10;;
29548;SDS011;16487;53.094;8.800;2023-06-26T15:17:07;1.37;;;1.27;;
29548;SDS011;16487;53.094;8.800;2023-06-26T15:19:56;1.60;;;1.50;;
29548;SDS011;16487;53.094;8.800;2023-06-26T15:22:44;2.40;;;1.47;;
29548;SDS011;16487;53.094;8.800;2023-06-26T15:25:32;1.90;;;1.20;;
29548;SDS011;16487;53.094;8.800;2023-06-26T15:28:20;1.43;;;1.20;;
29548;SDS011;16487;53.094;8.800;2023-06-26T15:31:07;1.53;;;1.27;;
29548;SDS011;16487;53.094;8.800;2023-06-26T15:33:57;2.00;;;1.37;;
29548;SDS011;16487;53.094;8.800;2023-06-26T15:36:44;2.33;;;1.93;;
29548;SDS011;16487;53.094;8.800;2023-06-26T15:39:32;1.50;;;1.20;;
29548;SDS011;16487;53.094;8.800;2023-06-26T15:42:20;2.03;;;1.30;;
29548;SDS011;16487;53.094;8.800;2023-06-26T15:45:08;1.90;;;1.43;;
29548;SDS011;16487;53.094;8.800;2023-06-26T15:47:56;0.97;;;0.97;;
29548;SDS011;16487;53.094;8.800;2023-06-26T15:50:46;2.70;;;1.60;;
29548;SDS011;16487;53.094;8.800;2023-06-26T15:53:36;0.93;;;0.90;;
29548;SDS011;16487;53.094;8.800;2023-06-26T15:56:25;1.30;;;1.20;;
29548;SDS011;16487;53.094;8.800;2023-06-26T15:59:13;1.97;;;1.30;;
29548;SDS011;16487;53.094;8.800;2023-06-26T16:02:01;1.70;;;0.87;;
29548;SDS011;16487;53.094;8.800;2023-06-26T16:04:48;1.63;;;1.53;;
29548;SDS011;16487;53.094;8.800;2023-06-26T16:07:37;2.80;;;0.83;;
29548;SDS011;16487;53.094;8.800;2023-06-26T16:10:43;0.90;;;0.90;;
29548;SDS011;16487;53.094;8.800;2023-06-26T16:13:30;1.47;;;1.10;;
29548;SDS011;16487;53.094;8.800;2023-06-26T16:16:18;1.47;;;1.00;;
29548;SDS011;16487;53.094;8.800;2023-06-26T16:19:06;1.27;;;1.10;;
29548;SDS011;16487;53.094;8.800;2023-06-26T16:21:54;1.00;;;0.90;;
29548;SDS011;16487;53.094;8.800;2023-06-26T16:24:43;1.30;;;1.30;;
29548;SDS011;16487;53.094;8.800;2023-06-26T16:27:31;1.30;;;1.07;;
29548;SDS011;16487;53.094;8.800;2023-06-26T16:30:19;1.30;;;1.20;;
29548;SDS011;16487;53.094;8.800;2023-06-26T16:33:07;1.23;;;1.00;;
29548;SDS011;16487;53.094;8.800;2023-06-26T16:36:01;0.90;;;0.90;;
29548;SDS011;16487;53.094;8.800;2023-06-26T16:38:49;1.40;;;1.30;;
29548;SDS011;16487;53.094;8.800;2023-06-26T16:41:38;3.47;;;1.40;;
29548;SDS011;16487;53.094;8.800;2023-06-26T16:44:25;1.07;;;1.07;;
29548;SDS011;16487;53.094;8.800;2023-06-26T16:47:13;1.47;;;1.37;;
29548;SDS011;16487;53.094;8.800;2023-06-26T16:50:01;1.10;;;1.10;;
29548;SDS011;16487;53.094;8.800;2023-06-26T16:52:49;1.73;;;1.33;;
29548;SDS011;16487;53.094;8.800;2023-06-26T16:55:37;2.17;;;1.33;;
29548;SDS011;16487;53.094;8.800;2023-06-26T16:58:29;1.07;;;1.07;;